createdAt,value
2022-10-18T00:02:04.047Z,15.30
2022-10-18T00:04:32.411Z,15.33
2022-10-18T00:07:00.393Z,15.36
2022-10-18T00:09:31.099Z,15.38
2022-10-18T00:12:01.852Z,15.40
2022-10-18T00:14:29.935Z,15.44
2022-10-18T00:16:59.352Z,15.45
2022-10-18T00:19:29.300Z,15.47
2022-10-18T00:21:57.974Z,15.49
2022-10-18T00:24:31.144Z,15.48
2022-10-18T00:26:59.074Z,15.50
2022-10-18T00:29:27.270Z,15.52
2022-10-18T00:31:58.787Z,15.52
2022-10-18T00:34:27.206Z,15.55
2022-10-18T00:36:55.397Z,15.57
2022-10-18T00:39:24.145Z,15.57
2022-10-18T00:41:52.550Z,15.57
2022-10-18T00:45:02.829Z,15.54
2022-10-18T00:47:33.691Z,15.47
2022-10-18T00:50:05.897Z,15.42
2022-10-18T00:52:36.567Z,15.40
2022-10-18T00:55:06.844Z,15.39
2022-10-18T00:57:35.406Z,15.36
2022-10-18T01:00:07.472Z,15.35
2022-10-18T01:02:39.488Z,15.34
2022-10-18T01:05:09.264Z,15.32
2022-10-18T01:08:02.593Z,15.28
2022-10-18T01:10:35.931Z,15.26
2022-10-18T01:13:12.093Z,15.22
2022-10-18T01:15:49.339Z,15.20
2022-10-18T01:18:26.040Z,15.17
2022-10-18T01:21:11.667Z,15.13
2022-10-18T01:24:18.506Z,15.11
2022-10-18T01:27:03.394Z,15.06
2022-10-18T01:29:42.515Z,15.04
2022-10-18T01:32:20.188Z,15.01
2022-10-18T01:34:52.018Z,14.99
2022-10-18T01:37:26.290Z,14.96
2022-10-18T01:39:57.491Z,14.92
2022-10-18T01:42:26.415Z,14.88
2022-10-18T01:44:55.794Z,14.85
2022-10-18T01:47:26.241Z,14.82
2022-10-18T01:49:59.349Z,14.76
2022-10-18T01:52:27.798Z,14.75
2022-10-18T01:54:57.456Z,14.75
2022-10-18T01:57:33.515Z,14.73
2022-10-18T02:00:04.969Z,14.69
2022-10-18T02:02:47.688Z,14.66
2022-10-18T02:05:31.040Z,14.61
2022-10-18T02:08:19.342Z,14.59
2022-10-18T02:10:55.268Z,14.52
2022-10-18T02:13:28.368Z,14.49
2022-10-18T02:16:02.706Z,14.44
2022-10-18T02:18:38.596Z,14.38
2022-10-18T02:21:14.496Z,14.38
2022-10-18T02:23:44.525Z,14.38
2022-10-18T02:26:12.929Z,14.40
2022-10-18T02:28:41.829Z,14.45
2022-10-18T02:31:16.790Z,14.50
2022-10-18T02:33:52.756Z,14.55
2022-10-18T02:36:29.083Z,14.58
2022-10-18T02:39:04.451Z,14.61
2022-10-18T02:41:33.442Z,14.62
2022-10-18T02:44:01.483Z,14.64
2022-10-18T02:46:31.512Z,14.65
2022-10-18T02:49:00.813Z,14.67
2022-10-18T02:51:28.871Z,14.67
2022-10-18T02:53:56.705Z,14.68
2022-10-18T02:56:29.522Z,14.68
2022-10-18T02:58:57.684Z,14.69
2022-10-18T03:01:25.683Z,14.71
2022-10-18T03:03:54.141Z,14.71
2022-10-18T03:06:23.338Z,14.75
2022-10-18T03:08:51.518Z,14.78
2022-10-18T03:11:19.495Z,14.80
2022-10-18T03:13:47.943Z,14.80
2022-10-18T03:16:15.844Z,14.81
2022-10-18T03:18:44.193Z,14.82
2022-10-18T03:21:12.209Z,14.82
2022-10-18T03:23:42.618Z,14.82
2022-10-18T03:26:10.747Z,14.79
2022-10-18T03:28:43.684Z,14.76
2022-10-18T03:33:40.539Z,14.69
2022-10-18T03:36:10.686Z,14.68
2022-10-18T03:38:41.293Z,14.67
2022-10-18T03:41:09.585Z,14.68
2022-10-18T03:43:38.142Z,14.67
2022-10-18T03:46:06.480Z,14.69
2022-10-18T03:48:35.222Z,14.73
2022-10-18T03:51:04.776Z,14.71
2022-10-18T03:53:33.017Z,14.73
2022-10-18T03:56:01.393Z,14.72
2022-10-18T03:58:29.485Z,14.74
2022-10-18T04:00:57.500Z,14.73
2022-10-18T04:03:25.529Z,14.71
2022-10-18T04:05:55.959Z,14.70
2022-10-18T04:08:25.283Z,14.69
2022-10-18T04:10:53.547Z,14.68
2022-10-18T04:13:23.836Z,14.67
2022-10-18T04:15:54.019Z,14.65
2022-10-18T04:18:25.059Z,14.63
2022-10-18T04:20:53.258Z,14.63
2022-10-18T04:23:21.323Z,14.60
2022-10-18T04:25:53.281Z,14.58
2022-10-18T04:28:21.560Z,14.59
2022-10-18T04:30:51.377Z,14.55
2022-10-18T04:33:19.934Z,14.54
2022-10-18T04:35:48.335Z,14.55
2022-10-18T04:38:16.279Z,14.53
2022-10-18T04:40:44.241Z,14.52
2022-10-18T04:43:13.669Z,14.49
2022-10-18T04:45:41.838Z,14.48
2022-10-18T04:48:10.285Z,14.48
2022-10-18T04:50:38.222Z,14.54
2022-10-18T04:53:15.368Z,14.61
2022-10-18T04:55:45.050Z,14.69
2022-10-18T04:58:17.488Z,14.72
2022-10-18T05:00:45.686Z,14.73
2022-10-18T05:03:14.621Z,14.69
2022-10-18T05:06:00.910Z,14.69
2022-10-18T05:08:31.073Z,14.65
2022-10-18T05:10:59.160Z,14.64
2022-10-18T05:13:28.813Z,14.61
2022-10-18T05:16:00.909Z,14.63
2022-10-18T05:18:29.139Z,14.62
2022-10-18T05:20:57.478Z,14.62
2022-10-18T05:23:25.923Z,14.59
2022-10-18T05:25:55.503Z,14.58
2022-10-18T05:28:41.127Z,14.59
2022-10-18T05:31:12.564Z,14.58
2022-10-18T05:33:43.820Z,14.58
2022-10-18T05:36:12.098Z,14.57
2022-10-18T05:38:45.425Z,14.53
2022-10-18T05:41:13.787Z,14.49
2022-10-18T05:43:41.940Z,14.48
2022-10-18T05:46:15.365Z,14.47
2022-10-18T05:48:44.970Z,14.47
2022-10-18T05:51:12.974Z,14.45
2022-10-18T05:53:41.063Z,14.53
2022-10-18T05:56:11.670Z,14.56
2022-10-18T05:58:40.699Z,14.59
2022-10-18T06:01:10.249Z,14.60
2022-10-18T06:03:39.622Z,14.62
2022-10-18T06:06:10.238Z,14.63
2022-10-18T06:08:39.367Z,14.66
2022-10-18T06:11:08.657Z,14.68
2022-10-18T06:13:40.485Z,14.73
2022-10-18T06:16:09.703Z,14.76
2022-10-18T06:18:39.654Z,14.83
2022-10-18T06:21:08.725Z,14.86
2022-10-18T06:23:36.796Z,14.89
2022-10-18T06:26:08.027Z,14.94
2022-10-18T06:28:37.312Z,15.01
2022-10-18T06:31:08.972Z,15.03
2022-10-18T06:33:37.179Z,15.07
2022-10-18T06:36:12.960Z,15.12
2022-10-18T06:38:41.123Z,15.12
2022-10-18T06:41:09.918Z,15.14
2022-10-18T06:43:38.023Z,15.16
2022-10-18T06:46:08.188Z,15.17
2022-10-18T06:48:37.432Z,15.17
2022-10-18T06:51:07.872Z,15.16
2022-10-18T06:53:43.855Z,15.12
2022-10-18T06:56:17.038Z,15.08
2022-10-18T06:58:47.709Z,15.07
2022-10-18T07:01:18.372Z,15.05
2022-10-18T07:03:49.941Z,15.08
2022-10-18T07:06:19.138Z,15.07
2022-10-18T07:08:50.301Z,15.08
2022-10-18T07:11:20.023Z,15.07
2022-10-18T07:13:48.289Z,15.08
2022-10-18T07:16:20.003Z,15.07
2022-10-18T07:18:49.693Z,15.11
2022-10-18T07:21:20.922Z,15.16
2022-10-18T07:23:55.299Z,15.20
2022-10-18T07:26:25.478Z,15.25
2022-10-18T07:28:55.708Z,15.32
2022-10-18T07:31:24.246Z,15.41
2022-10-18T07:33:52.501Z,15.46
2022-10-18T07:36:21.383Z,15.56
2022-10-18T07:38:49.638Z,15.72
2022-10-18T07:41:20.072Z,15.86
2022-10-18T07:43:50.806Z,16.01
2022-10-18T07:46:19.985Z,16.14
2022-10-18T07:48:48.046Z,16.32
2022-10-18T07:51:16.598Z,16.55
2022-10-18T07:53:44.591Z,16.84
2022-10-18T07:56:16.575Z,17.00
2022-10-18T07:58:47.117Z,17.25
2022-10-18T08:01:16.690Z,17.39
2022-10-18T08:03:44.668Z,17.57
2022-10-18T08:06:14.566Z,17.97
2022-10-18T08:08:42.484Z,18.45
2022-10-18T08:11:12.688Z,19.09
2022-10-18T08:13:40.663Z,19.38
2022-10-18T08:16:12.179Z,20.43
2022-10-18T08:18:40.796Z,21.04
2022-10-18T08:21:13.399Z,21.76
2022-10-18T08:23:41.989Z,21.63
2022-10-18T08:26:12.431Z,20.58
2022-10-18T08:28:46.053Z,20.38
2022-10-18T08:34:40.836Z,19.83
2022-10-18T08:37:08.897Z,19.74
2022-10-18T08:39:37.323Z,19.86
2022-10-18T08:42:36.487Z,19.82
2022-10-18T08:45:12.885Z,19.70
2022-10-18T08:47:57.333Z,20.01
2022-10-18T08:50:34.750Z,19.83
2022-10-18T08:53:15.117Z,20.19
2022-10-18T08:55:46.819Z,22.16
2022-10-18T08:58:19.235Z,23.22
2022-10-18T09:00:55.542Z,24.47
2022-10-18T09:03:39.725Z,24.06
2022-10-18T09:06:22.731Z,24.02
2022-10-18T09:09:03.882Z,23.07
2022-10-18T09:11:48.103Z,22.18
2022-10-18T09:14:29.883Z,21.73
2022-10-18T09:17:08.314Z,21.50
2022-10-18T09:19:54.982Z,21.97
2022-10-18T09:22:36.520Z,21.94
2022-10-18T09:25:12.558Z,21.60
2022-10-18T09:27:49.911Z,21.95
2022-10-18T09:30:26.723Z,23.61
2022-10-18T09:33:02.372Z,24.43
2022-10-18T09:35:34.726Z,25.51
2022-10-18T09:38:07.221Z,25.84
2022-10-18T09:40:41.742Z,25.69
2022-10-18T09:43:17.332Z,25.18
2022-10-18T09:45:47.803Z,25.40
2022-10-18T09:48:23.124Z,24.93
2022-10-18T09:50:56.810Z,24.17
2022-10-18T09:53:35.749Z,24.17
2022-10-18T09:56:06.843Z,23.53
2022-10-18T09:58:42.815Z,23.23
2022-10-18T10:01:13.659Z,22.42
2022-10-18T10:03:43.566Z,22.10
2022-10-18T10:06:19.023Z,21.60
2022-10-18T10:08:56.002Z,21.42
2022-10-18T10:11:35.846Z,21.23
2022-10-18T10:16:48.684Z,20.74
2022-10-18T10:19:21.543Z,20.68
2022-10-18T10:21:52.858Z,20.57
2022-10-18T10:24:31.295Z,20.54
2022-10-18T10:27:01.488Z,20.34
2022-10-18T10:29:58.766Z,20.14
2022-10-18T10:32:46.009Z,19.93
2022-10-18T10:35:33.822Z,19.66
2022-10-18T10:38:23.905Z,19.56
2022-10-18T10:40:53.851Z,19.28
2022-10-18T10:43:36.954Z,19.05
2022-10-18T10:46:10.243Z,18.88
2022-10-18T10:48:50.465Z,18.70
2022-10-18T10:51:30.568Z,18.75
2022-10-18T10:54:02.140Z,18.79
2022-10-18T10:56:33.467Z,18.92
2022-10-18T10:59:10.959Z,19.08
2022-10-18T11:01:39.418Z,19.14
2022-10-18T11:04:28.449Z,19.19
2022-10-18T11:07:07.419Z,19.36
2022-10-18T11:09:49.158Z,19.59
2022-10-18T11:12:27.903Z,19.69
2022-10-18T11:15:05.680Z,19.42
2022-10-18T11:17:43.242Z,19.60
2022-10-18T11:20:24.081Z,19.56
2022-10-18T11:23:06.940Z,19.44
2022-10-18T11:26:00.411Z,19.40
2022-10-18T11:28:43.848Z,19.25
2022-10-18T11:31:19.498Z,19.10
2022-10-18T11:34:15.089Z,19.04
2022-10-18T11:37:09.650Z,18.94
2022-10-18T11:39:55.760Z,18.93
2022-10-18T11:42:35.658Z,18.83
2022-10-18T11:45:26.823Z,18.72
2022-10-18T11:48:00.436Z,18.64
2022-10-18T11:50:36.192Z,18.57
2022-10-18T11:53:16.710Z,18.50
2022-10-18T11:55:55.542Z,18.42
2022-10-18T11:58:41.731Z,18.45
2022-10-18T12:01:27.722Z,18.43
2022-10-18T12:04:03.722Z,18.51
2022-10-18T12:06:38.577Z,18.64
2022-10-18T12:09:15.570Z,18.76
2022-10-18T12:11:53.561Z,18.89
2022-10-18T12:14:29.144Z,18.97
2022-10-18T12:17:35.775Z,19.02
2022-10-18T12:19:55.773Z,19.09
2022-10-18T12:22:29.995Z,19.06
2022-10-18T12:24:58.425Z,19.19
2022-10-18T12:27:37.713Z,19.64
2022-10-18T12:30:14.136Z,20.28
2022-10-18T12:32:56.522Z,20.75
2022-10-18T12:35:37.217Z,20.94
2022-10-18T12:38:19.734Z,20.91
2022-10-18T12:40:52.581Z,20.90
2022-10-18T12:43:26.590Z,20.95
2022-10-18T12:45:56.956Z,20.96
2022-10-18T12:48:36.478Z,20.65
2022-10-18T12:51:09.065Z,20.43
2022-10-18T12:53:37.433Z,20.20
2022-10-18T12:56:37.592Z,19.77
2022-10-18T12:59:39.630Z,19.65
2022-10-18T13:02:38.129Z,19.47
2022-10-18T13:05:52.753Z,19.57
2022-10-18T13:08:42.694Z,19.68
2022-10-18T13:11:36.115Z,19.83
2022-10-18T13:14:18.349Z,19.82
2022-10-18T13:16:52.808Z,19.79
2022-10-18T13:19:29.516Z,19.97
2022-10-18T13:22:16.299Z,20.18
2022-10-18T13:24:55.640Z,20.25
2022-10-18T13:27:37.439Z,20.38
2022-10-18T13:30:23.263Z,20.59
2022-10-18T13:36:00.971Z,20.60
2022-10-18T13:38:47.103Z,20.57
2022-10-18T13:41:20.975Z,20.59
2022-10-18T13:43:58.695Z,20.54
2022-10-18T13:47:20.165Z,20.60
2022-10-18T13:50:12.700Z,20.65
2022-10-18T13:53:12.959Z,20.65
2022-10-18T13:55:56.038Z,20.55
2022-10-18T13:58:29.635Z,20.44
2022-10-18T14:01:11.476Z,20.45
2022-10-18T14:04:08.824Z,20.43
2022-10-18T14:06:39.669Z,20.39
2022-10-18T14:09:26.090Z,20.53
2022-10-18T14:12:13.637Z,20.45
2022-10-18T14:14:47.069Z,20.34
2022-10-18T14:17:33.622Z,20.40
2022-10-18T14:20:13.067Z,20.36
2022-10-18T14:22:47.403Z,20.34
2022-10-18T14:25:37.245Z,20.33
2022-10-18T14:28:12.988Z,20.28
2022-10-18T14:30:56.087Z,20.25
2022-10-18T14:33:35.120Z,20.11
2022-10-18T14:36:15.548Z,20.19
2022-10-18T14:38:50.568Z,20.21
2022-10-18T14:41:23.942Z,20.15
2022-10-18T14:44:10.533Z,20.11
2022-10-18T14:46:44.004Z,20.14
2022-10-18T14:49:13.443Z,20.05
2022-10-18T14:51:43.900Z,19.98
2022-10-18T14:54:17.156Z,19.92
2022-10-18T14:56:46.972Z,19.86
2022-10-18T14:59:20.336Z,19.80
2022-10-18T15:02:00.865Z,19.81
2022-10-18T15:04:32.927Z,19.74
2022-10-18T15:07:03.633Z,19.72
2022-10-18T15:09:34.109Z,19.60
2022-10-18T15:12:08.191Z,19.59
2022-10-18T15:14:40.992Z,19.60
2022-10-18T15:17:17.920Z,19.47
2022-10-18T15:19:59.344Z,19.45
2022-10-18T15:22:32.404Z,19.44
2022-10-18T15:25:15.627Z,19.39
2022-10-18T15:27:47.588Z,19.27
2022-10-18T15:30:27.637Z,19.24
2022-10-18T15:32:58.056Z,19.17
2022-10-18T15:35:28.900Z,19.15
2022-10-18T15:37:58.739Z,19.06
2022-10-18T15:40:33.879Z,18.94
2022-10-18T15:43:07.148Z,18.78
2022-10-18T15:45:38.675Z,18.62
2022-10-18T15:48:25.662Z,18.24
2022-10-18T15:50:55.426Z,18.08
2022-10-18T15:53:32.025Z,17.94
2022-10-18T15:56:03.360Z,17.84
2022-10-18T15:58:41.296Z,17.83
2022-10-18T16:01:19.087Z,17.74
2022-10-18T16:03:48.622Z,17.74
2022-10-18T16:06:18.311Z,17.69
2022-10-18T16:08:48.217Z,17.66
2022-10-18T16:11:17.760Z,17.61
2022-10-18T16:13:47.721Z,17.56
2022-10-18T16:16:18.073Z,17.51
2022-10-18T16:18:49.284Z,17.50
2022-10-18T16:21:20.580Z,17.46
2022-10-18T16:23:49.922Z,17.37
2022-10-18T16:26:19.023Z,17.29
2022-10-18T16:28:49.244Z,17.20
2022-10-18T16:31:19.656Z,17.10
2022-10-18T16:33:51.271Z,16.96
2022-10-18T16:36:21.627Z,16.87
2022-10-18T16:38:52.667Z,16.75
2022-10-18T16:41:20.561Z,16.65
2022-10-18T16:43:51.116Z,16.56
2022-10-18T16:46:21.551Z,16.45
2022-10-18T16:48:50.860Z,16.35
2022-10-18T16:51:19.192Z,16.29
2022-10-18T16:53:47.171Z,16.19
2022-10-18T16:56:17.451Z,16.11
2022-10-18T16:58:46.455Z,16.03
2022-10-18T17:01:20.467Z,15.94
2022-10-18T17:03:51.256Z,15.91
2022-10-18T17:06:21.827Z,15.87
2022-10-18T17:08:53.986Z,15.80
2022-10-18T17:11:23.773Z,15.75
2022-10-18T17:13:52.260Z,15.70
2022-10-18T17:16:25.521Z,15.64
2022-10-18T17:18:53.708Z,15.58
2022-10-18T17:21:22.130Z,15.53
2022-10-18T17:23:50.545Z,15.48
2022-10-18T17:26:29.441Z,15.44
2022-10-18T17:29:00.488Z,15.39
2022-10-18T17:31:31.775Z,15.34
2022-10-18T17:34:01.754Z,15.33
2022-10-18T17:36:34.183Z,15.31
2022-10-18T17:39:03.448Z,15.32
2022-10-18T17:41:31.866Z,15.34
2022-10-18T17:44:03.411Z,15.35
2022-10-18T17:46:32.951Z,15.35
2022-10-18T17:49:03.695Z,15.37
2022-10-18T17:51:31.882Z,15.39
2022-10-18T17:54:00.257Z,15.38
2022-10-18T17:56:33.426Z,15.35
2022-10-18T17:59:02.746Z,15.33
2022-10-18T18:01:32.478Z,15.31
2022-10-18T18:04:02.919Z,15.26
2022-10-18T18:06:35.093Z,15.17
2022-10-18T18:09:07.051Z,15.07
2022-10-18T18:11:35.937Z,14.98
2022-10-18T18:14:08.794Z,14.91
2022-10-18T18:16:40.331Z,14.83
2022-10-18T18:19:10.069Z,14.75
2022-10-18T18:21:38.989Z,14.67
2022-10-18T18:24:07.924Z,14.65
2022-10-18T18:26:37.096Z,14.60
2022-10-18T18:29:08.853Z,14.57
2022-10-18T18:31:43.470Z,14.53
2022-10-18T18:36:43.123Z,14.48
2022-10-18T18:39:20.984Z,14.47
2022-10-18T18:41:50.859Z,14.42
2022-10-18T18:44:19.997Z,14.34
2022-10-18T18:46:48.713Z,14.27
2022-10-18T18:49:16.697Z,14.20
2022-10-18T18:51:46.490Z,14.15
2022-10-18T18:54:15.857Z,14.08
2022-10-18T18:56:44.088Z,14.09
2022-10-18T18:59:13.924Z,14.06
2022-10-18T19:01:43.170Z,13.98
2022-10-18T19:04:11.689Z,13.90
2022-10-18T19:06:41.403Z,13.82
2022-10-18T19:09:19.243Z,13.76
2022-10-18T19:11:50.159Z,13.67
2022-10-18T19:16:57.581Z,13.55
2022-10-18T19:19:27.022Z,13.54
2022-10-18T19:21:57.369Z,13.50
2022-10-18T19:24:31.167Z,13.48
2022-10-18T19:27:00.608Z,13.45
2022-10-18T19:29:32.970Z,13.40
2022-10-18T19:32:02.786Z,13.44
2022-10-18T19:34:32.574Z,13.54
2022-10-18T19:37:00.525Z,13.66
2022-10-18T19:39:32.804Z,13.72
2022-10-18T19:42:08.886Z,13.80
2022-10-18T19:44:38.311Z,13.83
2022-10-18T19:47:11.934Z,13.84
2022-10-18T19:49:40.615Z,13.85
2022-10-18T19:52:12.219Z,13.82
2022-10-18T19:54:41.957Z,13.79
2022-10-18T19:57:10.142Z,13.86
2022-10-18T20:02:15.327Z,13.92
2022-10-18T20:04:43.337Z,13.88
2022-10-18T20:07:11.924Z,13.91
2022-10-18T20:09:43.646Z,13.91
2022-10-18T20:12:14.510Z,13.90
2022-10-18T20:14:42.577Z,13.92
2022-10-18T20:17:13.030Z,13.93
2022-10-18T20:19:41.223Z,13.95
2022-10-18T20:22:09.241Z,13.92
2022-10-18T20:24:37.351Z,13.95
2022-10-18T20:27:06.729Z,13.94
2022-10-18T20:29:35.839Z,13.91
2022-10-18T20:32:03.981Z,13.93
2022-10-18T20:34:32.802Z,13.94
2022-10-18T20:37:03.695Z,13.95
2022-10-18T20:39:31.622Z,13.99
2022-10-18T20:42:00.171Z,13.98
2022-10-18T20:44:32.032Z,13.97
2022-10-18T20:47:02.248Z,13.92
2022-10-18T20:49:30.659Z,13.90
2022-10-18T20:51:58.579Z,13.93
2022-10-18T20:54:27.366Z,13.91
2022-10-18T20:56:55.310Z,13.88
2022-10-18T20:59:23.646Z,13.87
2022-10-18T21:01:53.198Z,13.85
2022-10-18T21:04:23.731Z,13.80
2022-10-18T21:06:51.641Z,13.79
2022-10-18T21:09:21.030Z,13.77
2022-10-18T21:11:50.363Z,13.74
2022-10-18T21:14:20.714Z,13.74
2022-10-18T21:16:49.662Z,13.69
2022-10-18T21:19:20.617Z,13.67
2022-10-18T21:21:51.214Z,13.64
2022-10-18T21:24:20.731Z,13.63
2022-10-18T21:26:48.775Z,13.56
2022-10-18T21:29:21.967Z,13.55
2022-10-18T21:31:53.422Z,13.55
2022-10-18T21:34:23.226Z,13.50
2022-10-18T21:36:51.432Z,13.50
2022-10-18T21:39:21.859Z,13.45
2022-10-18T21:41:50.459Z,13.44
2022-10-18T21:44:19.206Z,13.39
2022-10-18T21:46:47.598Z,13.33
2022-10-18T21:49:16.767Z,13.30
2022-10-18T21:51:46.471Z,13.28
2022-10-18T21:54:17.231Z,13.15
2022-10-18T21:56:45.408Z,13.15
2022-10-18T21:59:14.156Z,13.14
2022-10-18T22:01:43.753Z,13.13
2022-10-18T22:04:19.969Z,13.09
2022-10-18T22:06:49.885Z,13.08
2022-10-18T22:09:18.191Z,13.09
2022-10-18T22:11:48.523Z,13.09
2022-10-18T22:14:18.815Z,13.11
2022-10-18T22:16:49.292Z,13.05
2022-10-18T22:19:19.605Z,13.10
2022-10-18T22:21:49.032Z,13.11
2022-10-18T22:24:24.466Z,13.14
2022-10-18T22:26:55.587Z,13.11
2022-10-18T22:29:25.671Z,13.06
2022-10-18T22:31:55.485Z,13.00
2022-10-18T22:34:27.394Z,13.01
2022-10-18T22:36:57.502Z,12.98
2022-10-18T22:39:25.660Z,12.95
2022-10-18T22:41:56.288Z,12.90
2022-10-18T22:44:24.527Z,12.90
2022-10-18T22:46:54.889Z,12.89
2022-10-18T22:49:22.894Z,12.88
2022-10-18T22:51:57.404Z,12.88
2022-10-18T22:54:25.347Z,12.82
2022-10-18T22:56:53.513Z,12.80
2022-10-18T22:59:21.656Z,12.82
2022-10-18T23:01:49.932Z,12.80
2022-10-18T23:04:17.835Z,12.83
2022-10-18T23:06:45.979Z,12.89
2022-10-18T23:09:15.204Z,12.92
2022-10-18T23:11:43.112Z,12.97
2022-10-18T23:14:11.919Z,12.99
2022-10-18T23:16:40.082Z,13.02
2022-10-18T23:19:08.204Z,13.03
2022-10-18T23:21:40.865Z,13.04
2022-10-18T23:24:09.021Z,13.04
2022-10-18T23:26:38.694Z,13.01
2022-10-18T23:29:10.231Z,13.01
2022-10-18T23:31:38.456Z,13.02
2022-10-18T23:34:06.724Z,12.98
2022-10-18T23:37:42.399Z,12.94
2022-10-18T23:40:13.640Z,12.92
2022-10-18T23:42:41.789Z,12.88
2022-10-18T23:45:10.739Z,12.82
2022-10-18T23:47:38.973Z,12.81
2022-10-18T23:50:11.595Z,12.77
2022-10-18T23:52:39.813Z,12.77
2022-10-18T23:55:09.811Z,12.70
2022-10-18T23:57:37.911Z,12.68
